sensor_id;sensor_type;location;lat;lon;timestamp;P1;durP1;ratioP1;P2;durP2;ratioP2
22665;SDS011;11499;49.486;11.104;2022-11-06T00:01:10;20.00;;;14.37;;
22665;SDS011;11499;49.486;11.104;2022-11-06T00:06:10;23.53;;;18.60;;
22665;SDS011;11499;49.486;11.104;2022-11-06T00:08:55;17.33;;;13.90;;
22665;SDS011;11499;49.486;11.104;2022-11-06T00:11:23;18.47;;;12.83;;
22665;SDS011;11499;49.486;11.104;2022-11-06T00:13:49;14.77;;;11.50;;
22665;SDS011;11499;49.486;11.104;2022-11-06T00:16:16;14.07;;;10.90;;
22665;SDS011;11499;49.486;11.104;2022-11-06T00:18:43;13.33;;;10.33;;
22665;SDS011;11499;49.486;11.104;2022-11-06T00:21:09;15.67;;;10.80;;
22665;SDS011;11499;49.486;11.104;2022-11-06T00:23:37;15.17;;;10.30;;
22665;SDS011;11499;49.486;11.104;2022-11-06T00:26:04;12.83;;;10.47;;
22665;SDS011;11499;49.486;11.104;2022-11-06T00:28:37;11.10;;;9.90;;
22665;SDS011;11499;49.486;11.104;2022-11-06T00:33:47;13.73;;;10.83;;
22665;SDS011;11499;49.486;11.104;2022-11-06T00:36:14;15.07;;;11.37;;
22665;SDS011;11499;49.486;11.104;2022-11-06T00:38:42;14.67;;;10.87;;
22665;SDS011;11499;49.486;11.104;2022-11-06T00:41:08;12.93;;;10.23;;
22665;SDS011;11499;49.486;11.104;2022-11-06T00:43:36;13.80;;;9.77;;
22665;SDS011;11499;49.486;11.104;2022-11-06T00:46:02;13.63;;;10.40;;
22665;SDS011;11499;49.486;11.104;2022-11-06T00:48:30;13.30;;;10.43;;
22665;SDS011;11499;49.486;11.104;2022-11-06T00:53:33;14.63;;;10.43;;
22665;SDS011;11499;49.486;11.104;2022-11-06T00:56:05;14.40;;;9.47;;
22665;SDS011;11499;49.486;11.104;2022-11-06T01:00:46;14.03;;;9.77;;
22665;SDS011;11499;49.486;11.104;2022-11-06T01:03:11;14.83;;;10.13;;
22665;SDS011;11499;49.486;11.104;2022-11-06T01:05:37;12.30;;;9.53;;
22665;SDS011;11499;49.486;11.104;2022-11-06T01:08:02;13.50;;;9.87;;
22665;SDS011;11499;49.486;11.104;2022-11-06T01:10:28;13.87;;;9.70;;
22665;SDS011;11499;49.486;11.104;2022-11-06T01:12:53;11.73;;;9.20;;
22665;SDS011;11499;49.486;11.104;2022-11-06T01:15:19;15.57;;;10.23;;
22665;SDS011;11499;49.486;11.104;2022-11-06T01:17:44;17.20;;;11.63;;
22665;SDS011;11499;49.486;11.104;2022-11-06T01:20:10;13.93;;;10.90;;
22665;SDS011;11499;49.486;11.104;2022-11-06T01:22:35;17.63;;;10.63;;
22665;SDS011;11499;49.486;11.104;2022-11-06T01:27:38;12.47;;;9.73;;
22665;SDS011;11499;49.486;11.104;2022-11-06T01:30:04;11.63;;;9.40;;
22665;SDS011;11499;49.486;11.104;2022-11-06T01:32:30;14.07;;;10.17;;
22665;SDS011;11499;49.486;11.104;2022-11-06T01:34:55;14.23;;;10.40;;
22665;SDS011;11499;49.486;11.104;2022-11-06T01:37:21;18.47;;;10.80;;
22665;SDS011;11499;49.486;11.104;2022-11-06T01:39:48;14.03;;;9.37;;
22665;SDS011;11499;49.486;11.104;2022-11-06T01:42:14;13.43;;;9.93;;
22665;SDS011;11499;49.486;11.104;2022-11-06T01:47:21;15.30;;;11.20;;
22665;SDS011;11499;49.486;11.104;2022-11-06T01:49:52;16.30;;;10.87;;
22665;SDS011;11499;49.486;11.104;2022-11-06T01:55:54;32.67;;;11.67;;
22665;SDS011;11499;49.486;11.104;2022-11-06T01:58:22;19.10;;;10.47;;
22665;SDS011;11499;49.486;11.104;2022-11-06T02:00:50;17.73;;;11.00;;
22665;SDS011;11499;49.486;11.104;2022-11-06T02:03:16;15.87;;;11.17;;
22665;SDS011;11499;49.486;11.104;2022-11-06T02:05:42;17.33;;;10.83;;
22665;SDS011;11499;49.486;11.104;2022-11-06T02:08:09;16.20;;;11.07;;
22665;SDS011;11499;49.486;11.104;2022-11-06T02:10:37;13.13;;;10.30;;
22665;SDS011;11499;49.486;11.104;2022-11-06T02:15:38;17.23;;;9.97;;
22665;SDS011;11499;49.486;11.104;2022-11-06T02:28:51;14.20;;;10.93;;
22665;SDS011;11499;49.486;11.104;2022-11-06T02:31:25;14.20;;;10.20;;
22665;SDS011;11499;49.486;11.104;2022-11-06T02:33:54;15.87;;;11.03;;
22665;SDS011;11499;49.486;11.104;2022-11-06T02:36:26;15.03;;;10.50;;
22665;SDS011;11499;49.486;11.104;2022-11-06T02:38:56;12.03;;;9.93;;
22665;SDS011;11499;49.486;11.104;2022-11-06T02:41:27;15.17;;;10.70;;
22665;SDS011;11499;49.486;11.104;2022-11-06T02:43:56;12.53;;;9.87;;
22665;SDS011;11499;49.486;11.104;2022-11-06T02:49:10;17.27;;;10.00;;
22665;SDS011;11499;49.486;11.104;2022-11-06T02:51:41;20.27;;;11.03;;
22665;SDS011;11499;49.486;11.104;2022-11-06T02:54:10;17.53;;;10.27;;
22665;SDS011;11499;49.486;11.104;2022-11-06T02:56:39;16.63;;;10.07;;
22665;SDS011;11499;49.486;11.104;2022-11-06T02:59:14;24.70;;;11.47;;
22665;SDS011;11499;49.486;11.104;2022-11-06T03:02:03;32.03;;;11.00;;
22665;SDS011;11499;49.486;11.104;2022-11-06T03:04:44;29.77;;;10.93;;
22665;SDS011;11499;49.486;11.104;2022-11-06T03:07:33;20.57;;;10.50;;
22665;SDS011;11499;49.486;11.104;2022-11-06T03:10:11;21.30;;;10.10;;
22665;SDS011;11499;49.486;11.104;2022-11-06T03:15:17;17.57;;;10.03;;
22665;SDS011;11499;49.486;11.104;2022-11-06T03:20:57;13.70;;;10.20;;
22665;SDS011;11499;49.486;11.104;2022-11-06T03:23:25;13.97;;;9.33;;
22665;SDS011;11499;49.486;11.104;2022-11-06T03:28:52;11.50;;;9.47;;
22665;SDS011;11499;49.486;11.104;2022-11-06T03:31:25;14.43;;;10.33;;
22665;SDS011;11499;49.486;11.104;2022-11-06T03:33:58;14.30;;;9.57;;
22665;SDS011;11499;49.486;11.104;2022-11-06T03:36:33;11.97;;;9.13;;
22665;SDS011;11499;49.486;11.104;2022-11-06T03:41:42;23.23;;;11.00;;
22665;SDS011;11499;49.486;11.104;2022-11-06T03:44:27;19.90;;;10.10;;
22665;SDS011;11499;49.486;11.104;2022-11-06T03:47:41;19.30;;;9.27;;
22665;SDS011;11499;49.486;11.104;2022-11-06T03:49:41;15.70;;;9.20;;
22665;SDS011;11499;49.486;11.104;2022-11-06T03:52:15;16.50;;;9.33;;
22665;SDS011;11499;49.486;11.104;2022-11-06T03:54:47;20.93;;;9.23;;
22665;SDS011;11499;49.486;11.104;2022-11-06T03:57:20;17.53;;;9.70;;
22665;SDS011;11499;49.486;11.104;2022-11-06T03:59:52;17.13;;;9.23;;
22665;SDS011;11499;49.486;11.104;2022-11-06T04:02:23;14.40;;;8.90;;
22665;SDS011;11499;49.486;11.104;2022-11-06T04:08:10;13.03;;;9.97;;
22665;SDS011;11499;49.486;11.104;2022-11-06T04:10:56;20.13;;;10.00;;
22665;SDS011;11499;49.486;11.104;2022-11-06T04:13:45;18.93;;;9.07;;
22665;SDS011;11499;49.486;11.104;2022-11-06T04:16:21;23.03;;;9.07;;
22665;SDS011;11499;49.486;11.104;2022-11-06T04:18:53;27.27;;;9.97;;
22665;SDS011;11499;49.486;11.104;2022-11-06T04:23:59;18.23;;;9.20;;
22665;SDS011;11499;49.486;11.104;2022-11-06T04:26:56;29.37;;;11.17;;
22665;SDS011;11499;49.486;11.104;2022-11-06T04:30:16;23.83;;;9.57;;
22665;SDS011;11499;49.486;11.104;2022-11-06T04:37:43;15.63;;;9.53;;
22665;SDS011;11499;49.486;11.104;2022-11-06T04:41:06;27.07;;;9.37;;
22665;SDS011;11499;49.486;11.104;2022-11-06T04:43:13;27.90;;;9.90;;
22665;SDS011;11499;49.486;11.104;2022-11-06T04:45:46;24.20;;;8.97;;
22665;SDS011;11499;49.486;11.104;2022-11-06T04:48:15;27.90;;;10.07;;
22665;SDS011;11499;49.486;11.104;2022-11-06T04:50:43;33.67;;;10.33;;
22665;SDS011;11499;49.486;11.104;2022-11-06T04:53:13;24.80;;;9.47;;
22665;SDS011;11499;49.486;11.104;2022-11-06T04:55:44;28.07;;;9.80;;
22665;SDS011;11499;49.486;11.104;2022-11-06T04:58:15;24.70;;;9.50;;
22665;SDS011;11499;49.486;11.104;2022-11-06T05:03:24;33.67;;;9.90;;
22665;SDS011;11499;49.486;11.104;2022-11-06T05:05:49;27.17;;;9.73;;
22665;SDS011;11499;49.486;11.104;2022-11-06T05:08:15;29.30;;;9.70;;
22665;SDS011;11499;49.486;11.104;2022-11-06T05:10:43;17.53;;;8.77;;
22665;SDS011;11499;49.486;11.104;2022-11-06T05:13:09;17.83;;;8.40;;
22665;SDS011;11499;49.486;11.104;2022-11-06T05:15:35;24.73;;;9.30;;
22665;SDS011;11499;49.486;11.104;2022-11-06T05:18:01;14.70;;;9.03;;
22665;SDS011;11499;49.486;11.104;2022-11-06T05:20:28;16.80;;;8.73;;
22665;SDS011;11499;49.486;11.104;2022-11-06T05:22:54;19.57;;;9.00;;
22665;SDS011;11499;49.486;11.104;2022-11-06T05:30:33;23.13;;;9.70;;
22665;SDS011;11499;49.486;11.104;2022-11-06T05:33:00;36.33;;;9.70;;
22665;SDS011;11499;49.486;11.104;2022-11-06T05:35:25;22.20;;;9.47;;
22665;SDS011;11499;49.486;11.104;2022-11-06T05:37:57;43.37;;;9.27;;
22665;SDS011;11499;49.486;11.104;2022-11-06T05:40:23;67.20;;;10.40;;
22665;SDS011;11499;49.486;11.104;2022-11-06T05:42:48;56.97;;;10.47;;
22665;SDS011;11499;49.486;11.104;2022-11-06T05:45:14;45.33;;;10.23;;
22665;SDS011;11499;49.486;11.104;2022-11-06T05:47:40;56.73;;;10.60;;
22665;SDS011;11499;49.486;11.104;2022-11-06T05:50:06;34.83;;;10.47;;
22665;SDS011;11499;49.486;11.104;2022-11-06T05:52:33;25.60;;;9.47;;
22665;SDS011;11499;49.486;11.104;2022-11-06T05:57:00;37.50;;;9.30;;
22665;SDS011;11499;49.486;11.104;2022-11-06T05:59:26;36.73;;;9.70;;
22665;SDS011;11499;49.486;11.104;2022-11-06T06:01:51;36.17;;;9.43;;
22665;SDS011;11499;49.486;11.104;2022-11-06T06:04:17;17.83;;;8.77;;
22665;SDS011;11499;49.486;11.104;2022-11-06T06:06:42;30.93;;;9.83;;
22665;SDS011;11499;49.486;11.104;2022-11-06T06:09:08;37.73;;;10.43;;
22665;SDS011;11499;49.486;11.104;2022-11-06T06:11:34;49.80;;;9.13;;
22665;SDS011;11499;49.486;11.104;2022-11-06T06:13:59;57.60;;;10.87;;
22665;SDS011;11499;49.486;11.104;2022-11-06T06:16:25;52.20;;;10.33;;
22665;SDS011;11499;49.486;11.104;2022-11-06T06:18:51;57.73;;;11.07;;
22665;SDS011;11499;49.486;11.104;2022-11-06T06:24:18;71.67;;;12.23;;
22665;SDS011;11499;49.486;11.104;2022-11-06T06:26:43;43.73;;;12.23;;
22665;SDS011;11499;49.486;11.104;2022-11-06T06:29:09;37.67;;;11.47;;
22665;SDS011;11499;49.486;11.104;2022-11-06T06:31:34;44.67;;;11.83;;
22665;SDS011;11499;49.486;11.104;2022-11-06T06:34:00;40.10;;;10.97;;
22665;SDS011;11499;49.486;11.104;2022-11-06T06:36:25;71.33;;;11.63;;
22665;SDS011;11499;49.486;11.104;2022-11-06T06:38:51;45.43;;;11.53;;
22665;SDS011;11499;49.486;11.104;2022-11-06T06:41:16;58.93;;;11.83;;
22665;SDS011;11499;49.486;11.104;2022-11-06T06:43:42;44.73;;;11.50;;
22665;SDS011;11499;49.486;11.104;2022-11-06T06:46:08;73.17;;;11.77;;
22665;SDS011;11499;49.486;11.104;2022-11-06T06:48:34;31.60;;;11.80;;
22665;SDS011;11499;49.486;11.104;2022-11-06T06:51:59;34.60;;;10.83;;
22665;SDS011;11499;49.486;11.104;2022-11-06T06:54:25;39.10;;;10.50;;
22665;SDS011;11499;49.486;11.104;2022-11-06T06:56:51;35.27;;;9.87;;
22665;SDS011;11499;49.486;11.104;2022-11-06T06:59:16;31.97;;;9.23;;
22665;SDS011;11499;49.486;11.104;2022-11-06T07:01:42;28.57;;;9.37;;
22665;SDS011;11499;49.486;11.104;2022-11-06T07:04:08;25.63;;;9.27;;
22665;SDS011;11499;49.486;11.104;2022-11-06T07:06:34;19.47;;;9.43;;
22665;SDS011;11499;49.486;11.104;2022-11-06T07:09:00;30.47;;;9.90;;
22665;SDS011;11499;49.486;11.104;2022-11-06T07:11:25;12.23;;;8.93;;
22665;SDS011;11499;49.486;11.104;2022-11-06T07:13:51;20.13;;;8.30;;
22665;SDS011;11499;49.486;11.104;2022-11-06T07:19:18;21.13;;;9.10;;
22665;SDS011;11499;49.486;11.104;2022-11-06T07:21:43;28.73;;;8.70;;
22665;SDS011;11499;49.486;11.104;2022-11-06T07:24:09;22.77;;;8.33;;
22665;SDS011;11499;49.486;11.104;2022-11-06T07:26:34;26.60;;;9.17;;
22665;SDS011;11499;49.486;11.104;2022-11-06T07:29:00;27.03;;;9.00;;
22665;SDS011;11499;49.486;11.104;2022-11-06T07:31:25;28.37;;;9.27;;
22665;SDS011;11499;49.486;11.104;2022-11-06T07:33:51;19.20;;;8.93;;
22665;SDS011;11499;49.486;11.104;2022-11-06T07:36:16;41.43;;;9.63;;
22665;SDS011;11499;49.486;11.104;2022-11-06T07:38:42;23.13;;;8.60;;
22665;SDS011;11499;49.486;11.104;2022-11-06T07:41:12;25.10;;;7.90;;
22665;SDS011;11499;49.486;11.104;2022-11-06T07:46:15;16.90;;;7.87;;
22665;SDS011;11499;49.486;11.104;2022-11-06T07:48:40;10.17;;;7.60;;
22665;SDS011;11499;49.486;11.104;2022-11-06T07:51:08;7.60;;;6.63;;
22665;SDS011;11499;49.486;11.104;2022-11-06T07:53:35;12.43;;;7.37;;
22665;SDS011;11499;49.486;11.104;2022-11-06T07:56:01;11.37;;;8.20;;
22665;SDS011;11499;49.486;11.104;2022-11-06T07:58:27;15.40;;;8.37;;
22665;SDS011;11499;49.486;11.104;2022-11-06T08:00:53;7.90;;;7.10;;
22665;SDS011;11499;49.486;11.104;2022-11-06T08:03:20;10.80;;;7.77;;
22665;SDS011;11499;49.486;11.104;2022-11-06T08:05:47;12.50;;;8.50;;
22665;SDS011;11499;49.486;11.104;2022-11-06T08:08:13;9.43;;;7.43;;
22665;SDS011;11499;49.486;11.104;2022-11-06T08:10:38;12.63;;;8.17;;
22665;SDS011;11499;49.486;11.104;2022-11-06T08:15:40;8.53;;;7.30;;
22665;SDS011;11499;49.486;11.104;2022-11-06T08:18:06;10.50;;;7.57;;
22665;SDS011;11499;49.486;11.104;2022-11-06T08:20:33;8.23;;;7.37;;
22665;SDS011;11499;49.486;11.104;2022-11-06T08:23:00;7.10;;;6.40;;
22665;SDS011;11499;49.486;11.104;2022-11-06T08:25:26;7.23;;;6.47;;
22665;SDS011;11499;49.486;11.104;2022-11-06T08:27:53;8.93;;;7.37;;
22665;SDS011;11499;49.486;11.104;2022-11-06T08:30:20;9.37;;;7.20;;
22665;SDS011;11499;49.486;11.104;2022-11-06T08:32:45;8.67;;;7.53;;
22665;SDS011;11499;49.486;11.104;2022-11-06T08:35:11;7.90;;;7.10;;
22665;SDS011;11499;49.486;11.104;2022-11-06T08:37:36;7.83;;;7.07;;
22665;SDS011;11499;49.486;11.104;2022-11-06T08:42:35;8.20;;;7.40;;
22665;SDS011;11499;49.486;11.104;2022-11-06T08:45:00;8.43;;;7.33;;
22665;SDS011;11499;49.486;11.104;2022-11-06T08:47:26;8.80;;;7.50;;
22665;SDS011;11499;49.486;11.104;2022-11-06T08:49:51;8.30;;;7.50;;
22665;SDS011;11499;49.486;11.104;2022-11-06T08:52:17;8.80;;;7.37;;
22665;SDS011;11499;49.486;11.104;2022-11-06T08:54:42;7.93;;;7.17;;
22665;SDS011;11499;49.486;11.104;2022-11-06T08:57:08;8.07;;;7.27;;
22665;SDS011;11499;49.486;11.104;2022-11-06T08:59:33;8.10;;;7.30;;
22665;SDS011;11499;49.486;11.104;2022-11-06T09:01:59;8.80;;;7.90;;
22665;SDS011;11499;49.486;11.104;2022-11-06T09:04:25;8.30;;;7.50;;
22665;SDS011;11499;49.486;11.104;2022-11-06T09:09:34;8.10;;;7.30;;
22665;SDS011;11499;49.486;11.104;2022-11-06T09:12:00;7.33;;;6.63;;
22665;SDS011;11499;49.486;11.104;2022-11-06T09:14:27;8.13;;;7.33;;
22665;SDS011;11499;49.486;11.104;2022-11-06T09:16:53;7.70;;;7.00;;
22665;SDS011;11499;49.486;11.104;2022-11-06T09:19:18;8.17;;;7.37;;
22665;SDS011;11499;49.486;11.104;2022-11-06T09:21:44;8.53;;;7.30;;
22665;SDS011;11499;49.486;11.104;2022-11-06T09:24:10;7.77;;;6.97;;
22665;SDS011;11499;49.486;11.104;2022-11-06T09:26:35;8.40;;;7.60;;
22665;SDS011;11499;49.486;11.104;2022-11-06T09:29:01;8.67;;;7.27;;
22665;SDS011;11499;49.486;11.104;2022-11-06T09:34:07;7.83;;;7.10;;
22665;SDS011;11499;49.486;11.104;2022-11-06T09:36:34;8.43;;;7.63;;
22665;SDS011;11499;49.486;11.104;2022-11-06T09:39:00;8.43;;;7.60;;
22665;SDS011;11499;49.486;11.104;2022-11-06T09:41:48;7.83;;;7.10;;
22665;SDS011;11499;49.486;11.104;2022-11-06T09:45:06;8.07;;;7.27;;
22665;SDS011;11499;49.486;11.104;2022-11-06T09:47:12;8.03;;;6.70;;
22665;SDS011;11499;49.486;11.104;2022-11-06T09:55:23;7.47;;;6.77;;
22665;SDS011;11499;49.486;11.104;2022-11-06T10:01:17;8.30;;;7.07;;
22665;SDS011;11499;49.486;11.104;2022-11-06T10:03:50;10.00;;;7.33;;
22665;SDS011;11499;49.486;11.104;2022-11-06T10:06:22;7.70;;;6.90;;
22665;SDS011;11499;49.486;11.104;2022-11-06T10:08:49;7.73;;;7.00;;
22665;SDS011;11499;49.486;11.104;2022-11-06T10:13:49;8.40;;;7.60;;
22665;SDS011;11499;49.486;11.104;2022-11-06T10:20:03;9.40;;;7.67;;
22665;SDS011;11499;49.486;11.104;2022-11-06T10:27:38;10.00;;;9.00;;
22665;SDS011;11499;49.486;11.104;2022-11-06T10:32:44;9.77;;;8.77;;
22665;SDS011;11499;49.486;11.104;2022-11-06T10:38:12;12.43;;;10.33;;
22665;SDS011;11499;49.486;11.104;2022-11-06T10:40:42;10.87;;;9.77;;
22665;SDS011;11499;49.486;11.104;2022-11-06T10:43:17;9.53;;;8.63;;
22665;SDS011;11499;49.486;11.104;2022-11-06T10:45:52;10.37;;;9.37;;
22665;SDS011;11499;49.486;11.104;2022-11-06T10:48:36;10.47;;;9.37;;
22665;SDS011;11499;49.486;11.104;2022-11-06T10:54:00;10.60;;;9.60;;
22665;SDS011;11499;49.486;11.104;2022-11-06T10:57:32;9.60;;;8.60;;
22665;SDS011;11499;49.486;11.104;2022-11-06T10:59:52;10.37;;;9.33;;
22665;SDS011;11499;49.486;11.104;2022-11-06T11:02:23;9.33;;;8.43;;
22665;SDS011;11499;49.486;11.104;2022-11-06T11:04:52;9.83;;;8.87;;
22665;SDS011;11499;49.486;11.104;2022-11-06T11:07:18;10.27;;;9.13;;
22665;SDS011;11499;49.486;11.104;2022-11-06T11:09:44;9.57;;;8.67;;
22665;SDS011;11499;49.486;11.104;2022-11-06T11:12:21;11.70;;;9.73;;
22665;SDS011;11499;49.486;11.104;2022-11-06T11:15:03;10.40;;;9.30;;
22665;SDS011;11499;49.486;11.104;2022-11-06T11:17:40;11.10;;;9.77;;
22665;SDS011;11499;49.486;11.104;2022-11-06T11:27:27;11.27;;;10.17;;
22665;SDS011;11499;49.486;11.104;2022-11-06T11:29:58;9.87;;;8.87;;
22665;SDS011;11499;49.486;11.104;2022-11-06T11:32:24;9.40;;;8.00;;
22665;SDS011;11499;49.486;11.104;2022-11-06T11:34:54;8.80;;;7.50;;
22665;SDS011;11499;49.486;11.104;2022-11-06T11:37:27;9.33;;;8.33;;
22665;SDS011;11499;49.486;11.104;2022-11-06T11:39:55;9.00;;;7.70;;
22665;SDS011;11499;49.486;11.104;2022-11-06T11:42:46;8.00;;;7.20;;
22665;SDS011;11499;49.486;11.104;2022-11-06T11:48:12;10.10;;;9.03;;
22665;SDS011;11499;49.486;11.104;2022-11-06T11:50:38;9.40;;;8.50;;
22665;SDS011;11499;49.486;11.104;2022-11-06T11:53:05;9.57;;;8.57;;
22665;SDS011;11499;49.486;11.104;2022-11-06T11:55:42;9.07;;;8.10;;
22665;SDS011;11499;49.486;11.104;2022-11-06T11:58:20;8.93;;;8.03;;
22665;SDS011;11499;49.486;11.104;2022-11-06T12:00:55;7.70;;;6.90;;
22665;SDS011;11499;49.486;11.104;2022-11-06T12:03:24;8.00;;;7.03;;
22665;SDS011;11499;49.486;11.104;2022-11-06T12:05:52;9.40;;;8.50;;
22665;SDS011;11499;49.486;11.104;2022-11-06T12:08:27;9.37;;;8.47;;
22665;SDS011;11499;49.486;11.104;2022-11-06T12:10:59;8.83;;;7.70;;
22665;SDS011;11499;49.486;11.104;2022-11-06T12:16:14;8.47;;;7.67;;
22665;SDS011;11499;49.486;11.104;2022-11-06T12:18:44;11.00;;;8.70;;
22665;SDS011;11499;49.486;11.104;2022-11-06T12:26:31;9.07;;;7.93;;
22665;SDS011;11499;49.486;11.104;2022-11-06T12:31:59;8.33;;;7.53;;
22665;SDS011;11499;49.486;11.104;2022-11-06T12:37:17;9.80;;;8.70;;
22665;SDS011;11499;49.486;11.104;2022-11-06T12:43:41;8.60;;;7.40;;
22665;SDS011;11499;49.486;11.104;2022-11-06T12:48:58;8.03;;;7.23;;
22665;SDS011;11499;49.486;11.104;2022-11-06T13:00:07;9.53;;;7.67;;
22665;SDS011;11499;49.486;11.104;2022-11-06T13:05:17;7.90;;;7.10;;
22665;SDS011;11499;49.486;11.104;2022-11-06T13:12:45;8.47;;;7.57;;
22665;SDS011;11499;49.486;11.104;2022-11-06T13:15:39;8.77;;;7.87;;
22665;SDS011;11499;49.486;11.104;2022-11-06T13:18:12;8.40;;;7.60;;
22665;SDS011;11499;49.486;11.104;2022-11-06T13:23:36;9.80;;;8.13;;
22665;SDS011;11499;49.486;11.104;2022-11-06T13:28:54;7.87;;;7.10;;
22665;SDS011;11499;49.486;11.104;2022-11-06T13:31:36;9.17;;;8.27;;
22665;SDS011;11499;49.486;11.104;2022-11-06T13:36:27;9.40;;;8.00;;
22665;SDS011;11499;49.486;11.104;2022-11-06T13:38:59;9.10;;;8.20;;
22665;SDS011;11499;49.486;11.104;2022-11-06T13:41:31;8.00;;;7.20;;
22665;SDS011;11499;49.486;11.104;2022-11-06T13:44:00;10.30;;;9.20;;
22665;SDS011;11499;49.486;11.104;2022-11-06T13:46:35;12.23;;;10.23;;
22665;SDS011;11499;49.486;11.104;2022-11-06T13:51:52;7.33;;;6.63;;
22665;SDS011;11499;49.486;11.104;2022-11-06T13:54:29;8.60;;;7.77;;
22665;SDS011;11499;49.486;11.104;2022-11-06T13:57:00;8.40;;;7.60;;
22665;SDS011;11499;49.486;11.104;2022-11-06T14:02:47;8.33;;;7.43;;
22665;SDS011;11499;49.486;11.104;2022-11-06T14:05:21;8.30;;;7.37;;
22665;SDS011;11499;49.486;11.104;2022-11-06T14:08:06;8.50;;;7.70;;
22665;SDS011;11499;49.486;11.104;2022-11-06T14:10:49;8.17;;;7.37;;
22665;SDS011;11499;49.486;11.104;2022-11-06T14:13:31;8.67;;;7.87;;
22665;SDS011;11499;49.486;11.104;2022-11-06T14:16:44;8.87;;;8.00;;
22665;SDS011;11499;49.486;11.104;2022-11-06T14:18:52;8.93;;;8.03;;
22665;SDS011;11499;49.486;11.104;2022-11-06T14:32:02;8.97;;;8.07;;
22665;SDS011;11499;49.486;11.104;2022-11-06T14:34:35;10.00;;;9.00;;
22665;SDS011;11499;49.486;11.104;2022-11-06T14:45:15;9.10;;;8.20;;
22665;SDS011;11499;49.486;11.104;2022-11-06T14:55:58;17.37;;;10.77;;
22665;SDS011;11499;49.486;11.104;2022-11-06T14:58:40;9.97;;;8.87;;
22665;SDS011;11499;49.486;11.104;2022-11-06T15:01:12;10.03;;;9.03;;
22665;SDS011;11499;49.486;11.104;2022-11-06T15:08:50;10.47;;;9.37;;
22665;SDS011;11499;49.486;11.104;2022-11-06T15:11:47;10.73;;;9.63;;
22665;SDS011;11499;49.486;11.104;2022-11-06T15:22:37;10.10;;;9.10;;
22665;SDS011;11499;49.486;11.104;2022-11-06T15:25:11;10.07;;;9.07;;
22665;SDS011;11499;49.486;11.104;2022-11-06T15:28:06;10.50;;;9.40;;
22665;SDS011;11499;49.486;11.104;2022-11-06T15:30:47;10.40;;;9.30;;
22665;SDS011;11499;49.486;11.104;2022-11-06T15:33:24;10.23;;;9.33;;
22665;SDS011;11499;49.486;11.104;2022-11-06T15:36:11;12.00;;;10.83;;
22665;SDS011;11499;49.486;11.104;2022-11-06T15:38:41;13.30;;;11.90;;
22665;SDS011;11499;49.486;11.104;2022-11-06T15:41:10;11.63;;;10.43;;
22665;SDS011;11499;49.486;11.104;2022-11-06T15:43:43;13.77;;;11.57;;
22665;SDS011;11499;49.486;11.104;2022-11-06T15:51:57;13.47;;;12.07;;
22665;SDS011;11499;49.486;11.104;2022-11-06T15:54:34;12.70;;;10.83;;
22665;SDS011;11499;49.486;11.104;2022-11-06T15:57:15;12.83;;;11.20;;
22665;SDS011;11499;49.486;11.104;2022-11-06T15:59:43;14.00;;;11.37;;
22665;SDS011;11499;49.486;11.104;2022-11-06T16:02:13;18.23;;;12.73;;
22665;SDS011;11499;49.486;11.104;2022-11-06T16:04:44;16.83;;;12.90;;
22665;SDS011;11499;49.486;11.104;2022-11-06T16:07:10;18.23;;;13.73;;
22665;SDS011;11499;49.486;11.104;2022-11-06T16:09:36;14.97;;;12.83;;
22665;SDS011;11499;49.486;11.104;2022-11-06T16:12:05;13.93;;;11.63;;
22665;SDS011;11499;49.486;11.104;2022-11-06T16:16:50;13.97;;;11.53;;
22665;SDS011;11499;49.486;11.104;2022-11-06T16:19:32;13.33;;;11.83;;
22665;SDS011;11499;49.486;11.104;2022-11-06T16:22:00;13.50;;;11.90;;
22665;SDS011;11499;49.486;11.104;2022-11-06T16:24:27;15.27;;;12.57;;
22665;SDS011;11499;49.486;11.104;2022-11-06T16:26:56;16.23;;;14.07;;
22665;SDS011;11499;49.486;11.104;2022-11-06T16:29:25;18.03;;;15.10;;
22665;SDS011;11499;49.486;11.104;2022-11-06T16:32:05;19.23;;;15.27;;
22665;SDS011;11499;49.486;11.104;2022-11-06T16:34:34;17.47;;;15.67;;
22665;SDS011;11499;49.486;11.104;2022-11-06T16:37:03;18.77;;;16.77;;
22665;SDS011;11499;49.486;11.104;2022-11-06T16:43:00;24.27;;;18.93;;
22665;SDS011;11499;49.486;11.104;2022-11-06T16:45:27;26.73;;;22.17;;
22665;SDS011;11499;49.486;11.104;2022-11-06T16:48:22;25.20;;;20.23;;
22665;SDS011;11499;49.486;11.104;2022-11-06T16:50:52;25.03;;;18.87;;
22665;SDS011;11499;49.486;11.104;2022-11-06T16:53:20;20.83;;;16.50;;
22665;SDS011;11499;49.486;11.104;2022-11-06T16:55:54;19.80;;;16.90;;
22665;SDS011;11499;49.486;11.104;2022-11-06T16:58:29;19.63;;;15.10;;
22665;SDS011;11499;49.486;11.104;2022-11-06T17:01:04;17.60;;;15.27;;
22665;SDS011;11499;49.486;11.104;2022-11-06T17:03:45;20.00;;;16.03;;
22665;SDS011;11499;49.486;11.104;2022-11-06T17:07:47;20.43;;;16.17;;
22665;SDS011;11499;49.486;11.104;2022-11-06T17:10:34;18.07;;;15.57;;
22665;SDS011;11499;49.486;11.104;2022-11-06T17:15:40;16.87;;;15.00;;
22665;SDS011;11499;49.486;11.104;2022-11-06T17:18:10;19.00;;;15.73;;
22665;SDS011;11499;49.486;11.104;2022-11-06T17:20:43;18.93;;;16.20;;
22665;SDS011;11499;49.486;11.104;2022-11-06T17:23:12;18.43;;;15.97;;
22665;SDS011;11499;49.486;11.104;2022-11-06T17:25:37;20.10;;;16.40;;
22665;SDS011;11499;49.486;11.104;2022-11-06T17:28:03;18.43;;;15.50;;
22665;SDS011;11499;49.486;11.104;2022-11-06T17:30:29;16.90;;;15.07;;
22665;SDS011;11499;49.486;11.104;2022-11-06T17:34:46;16.83;;;13.97;;
22665;SDS011;11499;49.486;11.104;2022-11-06T17:37:12;15.83;;;13.67;;
22665;SDS011;11499;49.486;11.104;2022-11-06T17:39:38;18.47;;;16.10;;
22665;SDS011;11499;49.486;11.104;2022-11-06T17:42:03;18.37;;;16.17;;
22665;SDS011;11499;49.486;11.104;2022-11-06T17:44:29;16.93;;;14.20;;
22665;SDS011;11499;49.486;11.104;2022-11-06T17:46:54;17.13;;;13.93;;
22665;SDS011;11499;49.486;11.104;2022-11-06T17:49:20;16.77;;;14.93;;
22665;SDS011;11499;49.486;11.104;2022-11-06T17:51:46;19.40;;;15.63;;
22665;SDS011;11499;49.486;11.104;2022-11-06T17:54:27;24.13;;;17.30;;
22665;SDS011;11499;49.486;11.104;2022-11-06T17:59:37;21.70;;;16.53;;
22665;SDS011;11499;49.486;11.104;2022-11-06T18:02:02;17.93;;;14.43;;
22665;SDS011;11499;49.486;11.104;2022-11-06T18:04:28;22.37;;;19.03;;
22665;SDS011;11499;49.486;11.104;2022-11-06T18:06:58;23.40;;;20.17;;
22665;SDS011;11499;49.486;11.104;2022-11-06T18:09:24;23.13;;;19.13;;
22665;SDS011;11499;49.486;11.104;2022-11-06T18:11:50;22.57;;;17.80;;
22665;SDS011;11499;49.486;11.104;2022-11-06T18:14:17;19.17;;;15.63;;
22665;SDS011;11499;49.486;11.104;2022-11-06T18:16:43;16.07;;;14.37;;
22665;SDS011;11499;49.486;11.104;2022-11-06T18:19:10;17.47;;;13.90;;
22665;SDS011;11499;49.486;11.104;2022-11-06T18:23:59;20.33;;;17.60;;
22665;SDS011;11499;49.486;11.104;2022-11-06T18:26:25;20.57;;;18.43;;
22665;SDS011;11499;49.486;11.104;2022-11-06T18:28:51;18.53;;;16.50;;
22665;SDS011;11499;49.486;11.104;2022-11-06T18:31:16;24.07;;;18.97;;
22665;SDS011;11499;49.486;11.104;2022-11-06T18:33:43;18.90;;;16.63;;
22665;SDS011;11499;49.486;11.104;2022-11-06T18:36:09;18.00;;;16.00;;